Time;durP1;ratioP1;P1;durP2;ratioP2;P2;SDS_P1;SDS_P2;PMS_P1;PMS_P2;Temp;Humidity;BMP_temperature;BMP_pressure;BME280_temperature;BME280_humidity;BME280_pressure;Samples;Min_cycle;Max_cycle;Signal;HPM_P1;HPM_P2
2023/05/10 00:00:33;;;;;;;5.28;2.95;;;11.70;99.90;;;;;;4992967;28;20027;-43
2023/05/10 00:02:58;;;;;;;5.97;2.25;;;11.70;99.90;;;;;;4994201;28;20045;-47
2023/05/10 00:05:24;;;;;;;4.63;2.58;;;11.70;99.90;;;;;;4993249;28;20034;-52
2023/05/10 00:07:50;;;;;;;5.25;2.38;;;11.80;99.90;;;;;;4994201;28;20035;-46
2023/05/10 00:10:15;;;;;;;3.75;2.35;;;11.80;99.90;;;;;;4994365;28;20101;-51
2023/05/10 00:12:41;;;;;;;4.65;2.15;;;11.80;99.90;;;;;;4994749;28;20030;-43
2023/05/10 00:15:08;;;;;;;3.92;2.20;;;11.80;99.90;;;;;;4994640;28;20061;-40
2023/05/10 00:17:33;;;;;;;3.42;2.10;;;11.80;99.90;;;;;;4993639;28;20035;-42
2023/05/10 00:20:00;;;;;;;5.75;2.10;;;11.90;99.90;;;;;;4994467;28;20691;-40
2023/05/10 00:22:25;;;;;;;2.97;1.83;;;11.80;99.90;;;;;;4994425;28;20034;-42
2023/05/10 00:24:51;;;;;;;3.38;2.00;;;11.80;99.90;;;;;;4994172;28;20034;-40
2023/05/10 00:27:17;;;;;;;5.22;1.77;;;11.80;99.90;;;;;;4993951;28;20026;-42
2023/05/10 00:29:42;;;;;;;4.85;2.10;;;11.80;99.90;;;;;;4994441;28;20484;-45
2023/05/10 00:32:08;;;;;;;3.83;1.95;;;11.90;99.90;;;;;;4994055;28;20057;-41
2023/05/10 00:34:33;;;;;;;4.22;1.80;;;11.80;99.90;;;;;;4993769;28;20416;-52
2023/05/10 00:36:59;;;;;;;5.10;2.17;;;11.80;99.90;;;;;;4994004;28;20033;-49
2023/05/10 00:39:26;;;;;;;3.22;1.80;;;11.90;99.90;;;;;;4993373;28;20156;-50
2023/05/10 00:41:52;;;;;;;4.35;2.00;;;11.80;99.90;;;;;;4994129;28;20034;-48
2023/05/10 00:44:18;;;;;;;4.97;2.13;;;11.80;99.90;;;;;;4994070;28;20029;-54
2023/05/10 00:46:44;;;;;;;3.55;1.80;;;11.80;99.90;;;;;;4993848;28;20109;-57
2023/05/10 00:49:10;;;;;;;4.35;2.10;;;11.80;99.90;;;;;;4993937;28;20105;-45
2023/05/10 00:51:36;;;;;;;5.18;1.80;;;11.80;99.90;;;;;;4993830;28;20554;-49
2023/05/10 00:54:02;;;;;;;3.35;1.80;;;11.80;99.90;;;;;;4993873;28;20030;-49
2023/05/10 00:56:29;;;;;;;3.45;1.92;;;11.70;99.90;;;;;;4993253;28;20045;-51
2023/05/10 00:58:55;;;;;;;4.80;2.20;;;11.80;99.90;;;;;;4993652;28;20054;-45
2023/05/10 01:01:21;;;;;;;4.00;2.20;;;11.70;99.90;;;;;;4993556;28;20057;-52
2023/05/10 01:03:47;;;;;;;3.33;1.90;;;11.70;99.90;;;;;;4993200;28;20433;-61
2023/05/10 01:06:13;;;;;;;3.55;2.10;;;11.70;99.90;;;;;;4993535;28;20088;-54
2023/05/10 01:08:39;;;;;;;4.78;2.20;;;11.70;99.90;;;;;;4995744;28;20072;-58
2023/05/10 01:11:04;;;;;;;4.40;2.20;;;11.60;99.90;;;;;;4999774;28;20070;-55
2023/05/10 01:13:30;;;;;;;4.40;2.10;;;11.60;99.90;;;;;;4996316;28;20065;-45
2023/05/10 01:15:56;;;;;;;5.72;2.22;;;11.60;99.90;;;;;;5002051;28;20034;-53
2023/05/10 01:18:22;;;;;;;3.42;1.90;;;11.60;99.90;;;;;;5006270;28;20033;-40
2023/05/10 01:20:55;;;;;;;3.40;2.13;;;11.60;99.90;;;;;;4994456;28;20077;-45
2023/05/10 01:23:50;;;;;;;5.90;1.80;;;11.60;99.90;;;;;;4975086;28;20034;-39
2023/05/10 01:26:36;;;;;;;3.60;1.77;;;11.50;99.90;;;;;;4986097;28;20401;-40
2023/05/10 01:29:30;;;;;;;2.88;1.80;;;11.60;99.90;;;;;;4989571;28;20034;-55
2023/05/10 01:32:04;;;;;;;4.75;1.90;;;11.50;99.90;;;;;;4993286;28;20099;-40
2023/05/10 01:34:59;;;;;;;6.13;2.00;;;11.50;99.90;;;;;;4993626;28;20026;-51
2023/05/10 01:37:33;;;;;;;4.20;2.03;;;11.50;99.90;;;;;;4988486;28;20473;-40
2023/05/10 01:40:32;;;;;;;4.10;1.63;;;11.50;99.90;;;;;;4992752;28;20054;-43
2023/05/10 01:43:03;;;;;;;3.90;1.88;;;11.50;99.90;;;;;;4992137;28;20031;-51
2023/05/10 01:45:47;;;;;;;5.93;2.15;;;11.60;99.90;;;;;;4992827;28;20030;-41
2023/05/10 01:48:14;;;;;;;4.90;2.25;;;11.60;99.90;;;;;;4993499;28;20095;-40
2023/05/10 01:50:43;;;;;;;3.90;1.80;;;11.60;99.90;;;;;;4992946;28;20551;-39
2023/05/10 01:53:11;;;;;;;5.50;2.15;;;11.60;99.90;;;;;;4993048;28;20477;-41
2023/05/10 01:55:46;;;;;;;5.35;2.03;;;11.60;99.90;;;;;;4992512;28;20030;-40
2023/05/10 01:58:22;;;;;;;5.38;2.05;;;11.60;99.90;;;;;;4993004;28;20026;-43
2023/05/10 02:00:51;;;;;;;4.93;1.85;;;11.60;99.90;;;;;;4992930;28;20019;-41
2023/05/10 02:03:20;;;;;;;2.88;2.00;;;11.60;99.90;;;;;;4992075;28;20092;-40
2023/05/10 02:05:48;;;;;;;5.20;2.03;;;11.60;99.90;;;;;;4991448;28;20085;-48
2023/05/10 02:08:15;;;;;;;4.60;2.30;;;11.60;99.90;;;;;;4991881;28;20038;-41
2023/05/10 02:10:43;;;;;;;4.75;2.22;;;11.70;99.90;;;;;;4990813;28;20061;-40
2023/05/10 02:13:11;;;;;;;4.20;2.22;;;11.60;99.90;;;;;;4991526;28;20092;-44
2023/05/10 02:15:38;;;;;;;3.28;2.00;;;11.70;99.90;;;;;;4990942;28;20053;-43
2023/05/10 02:18:05;;;;;;;4.50;2.47;;;11.70;99.90;;;;;;4993053;28;20022;-41
2023/05/10 02:20:32;;;;;;;3.53;2.20;;;11.70;99.90;;;;;;4991883;28;20031;-42
2023/05/10 02:22:59;;;;;;;5.45;2.28;;;11.70;99.90;;;;;;4992190;28;20032;-40
2023/05/10 02:25:25;;;;;;;5.03;2.15;;;11.70;99.90;;;;;;5010852;28;20030;-39
2023/05/10 02:27:54;;;;;;;4.43;2.30;;;11.60;99.90;;;;;;5005536;28;20030;-47
2023/05/10 02:30:21;;;;;;;4.03;2.17;;;11.60;99.90;;;;;;5007388;28;20086;-39
2023/05/10 02:32:48;;;;;;;5.25;2.40;;;11.70;99.90;;;;;;4992665;28;20029;-42
2023/05/10 02:35:15;;;;;;;5.97;2.58;;;11.70;99.90;;;;;;4997400;28;20037;-40
2023/05/10 02:37:42;;;;;;;4.22;2.40;;;11.60;99.90;;;;;;4993016;28;20060;-40
2023/05/10 02:40:10;;;;;;;3.90;2.33;;;11.60;99.90;;;;;;5005671;28;20125;-45
2023/05/10 02:42:38;;;;;;;3.20;1.90;;;11.70;99.90;;;;;;5001186;28;20048;-44
2023/05/10 02:45:10;;;;;;;4.38;2.58;;;11.70;99.90;;;;;;5016836;28;20247;-40
2023/05/10 02:47:36;;;;;;;4.55;2.25;;;11.60;99.90;;;;;;4993092;28;20030;-40
2023/05/10 02:50:02;;;;;;;4.57;2.53;;;11.60;99.90;;;;;;5017162;28;20031;-42
2023/05/10 02:52:36;;;;;;;4.53;2.42;;;11.60;99.90;;;;;;5006953;28;20040;-40
2023/05/10 02:55:05;;;;;;;5.53;2.60;;;11.70;99.90;;;;;;4994308;28;20041;-45
2023/05/10 02:57:38;;;;;;;8.43;2.92;;;11.60;99.90;;;;;;5006410;28;20030;-44
2023/05/10 03:00:04;;;;;;;3.80;2.35;;;11.60;99.90;;;;;;4993817;28;20033;-48
2023/05/10 03:02:30;;;;;;;5.70;2.38;;;11.60;99.90;;;;;;4999027;28;20474;-41
2023/05/10 03:04:56;;;;;;;4.05;2.42;;;11.60;99.90;;;;;;4997716;28;20070;-55
2023/05/10 03:07:23;;;;;;;6.85;2.60;;;11.60;99.90;;;;;;4995147;28;20037;-41
2023/05/10 03:09:49;;;;;;;7.50;2.88;;;11.60;99.90;;;;;;4997328;28;20381;-42
2023/05/10 03:12:33;;;;;;;5.85;3.00;;;11.60;99.90;;;;;;5004565;28;20052;-41
2023/05/10 03:15:22;;;;;;;4.97;2.58;;;11.60;99.90;;;;;;5005735;28;20044;-41
2023/05/10 03:17:47;;;;;;;7.05;2.80;;;11.60;99.90;;;;;;4993998;28;20023;-41
2023/05/10 03:20:25;;;;;;;6.25;2.58;;;11.60;99.90;;;;;;4994378;28;20385;-42
2023/05/10 03:23:17;;;;;;;5.53;2.78;;;11.60;99.90;;;;;;5009034;28;20030;-46
2023/05/10 03:25:44;;;;;;;5.00;2.53;;;11.60;99.90;;;;;;5001513;28;20031;-42
2023/05/10 03:28:10;;;;;;;4.53;2.80;;;11.70;99.90;;;;;;5009482;28;20037;-40
2023/05/10 03:30:36;;;;;;;4.70;2.90;;;11.70;99.90;;;;;;5009618;28;20037;-40
2023/05/10 03:33:06;;;;;;;7.32;3.13;;;11.70;99.90;;;;;;4992238;28;20045;-42
2023/05/10 03:35:31;;;;;;;;;;;11.70;99.90;;;;;;4998643;28;20029;-41
2023/05/10 03:37:57;;;;;;;5.28;2.97;;;11.70;99.90;;;;;;4991292;28;19909;-42
2023/05/10 03:40:24;;;;;;;6.72;3.47;;;11.70;99.90;;;;;;5000908;28;20485;-42
2023/05/10 03:42:49;;;;;;;5.60;3.40;;;11.70;99.90;;;;;;5000456;28;20038;-44
2023/05/10 03:45:15;;;;;;;8.63;3.47;;;11.70;99.90;;;;;;5000066;28;20084;-48
2023/05/10 03:47:41;;;;;;;6.43;3.80;;;11.70;99.90;;;;;;5010607;28;20069;-42
2023/05/10 03:50:07;;;;;;;8.07;3.53;;;11.70;99.90;;;;;;4999275;28;20030;-42
2023/05/10 03:52:33;;;;;;;5.28;3.45;;;11.70;99.90;;;;;;5008567;28;20034;-41
2023/05/10 03:54:59;;;;;;;10.63;4.00;;;11.70;99.90;;;;;;5001814;28;20436;-54
2023/05/10 03:57:24;;;;;;;7.07;4.00;;;11.70;99.90;;;;;;5007967;28;20034;-42
2023/05/10 03:59:50;;;;;;;7.25;4.03;;;11.70;99.90;;;;;;5011090;28;20221;-40
2023/05/10 04:02:16;;;;;;;6.75;3.80;;;11.70;99.90;;;;;;4994021;28;20029;-41
2023/05/10 04:04:42;;;;;;;9.32;4.25;;;11.70;99.90;;;;;;4993189;28;20061;-41
2023/05/10 04:07:09;;;;;;;7.53;4.20;;;11.60;99.90;;;;;;4988653;28;20058;-41
2023/05/10 04:09:35;;;;;;;8.13;3.90;;;11.60;99.90;;;;;;5004101;28;20034;-43
2023/05/10 04:12:02;;;;;;;10.43;4.25;;;11.60;99.90;;;;;;4992401;28;20038;-42
2023/05/10 04:14:28;;;;;;;6.78;4.28;;;11.60;99.90;;;;;;4993057;28;20033;-42
2023/05/10 04:16:53;;;;;;;9.43;4.80;;;11.60;99.90;;;;;;5004433;28;20030;-43
2023/05/10 04:19:19;;;;;;;7.72;4.70;;;11.60;99.90;;;;;;5003134;28;20153;-42
2023/05/10 04:21:45;;;;;;;9.00;4.82;;;11.70;99.90;;;;;;5004396;28;20022;-42
2023/05/10 04:24:11;;;;;;;11.10;5.03;;;11.60;99.90;;;;;;4981598;28;20486;-41
2023/05/10 04:26:36;;;;;;;10.05;5.25;;;11.60;99.90;;;;;;5005911;28;20109;-42
2023/05/10 04:29:02;;;;;;;14.48;5.35;;;11.60;99.90;;;;;;5001649;28;20028;-41
2023/05/10 04:31:27;;;;;;;8.48;4.88;;;11.60;99.90;;;;;;5013824;28;20401;-41
2023/05/10 04:33:53;;;;;;;11.25;5.30;;;11.60;99.90;;;;;;5006116;28;20377;-45
2023/05/10 04:36:20;;;;;;;14.60;6.35;;;11.60;99.90;;;;;;5003531;28;20486;-45
2023/05/10 04:38:46;;;;;;;11.68;5.97;;;11.60;99.90;;;;;;5011304;28;20032;-41
2023/05/10 04:41:12;;;;;;;10.13;6.45;;;11.60;99.90;;;;;;5000824;28;20113;-42
2023/05/10 04:43:38;;;;;;;11.55;5.47;;;11.60;99.90;;;;;;5011294;28;20022;-42
2023/05/10 04:46:07;;;;;;;9.48;5.38;;;11.60;99.90;;;;;;5014185;28;20314;-43
2023/05/10 04:48:32;;;;;;;11.17;5.73;;;11.60;99.90;;;;;;5000584;28;20034;-42
2023/05/10 04:50:58;;;;;;;8.77;5.50;;;11.60;99.90;;;;;;5011186;28;20284;-52
2023/05/10 04:53:24;;;;;;;7.88;4.82;;;11.60;99.90;;;;;;5000006;28;20504;-43
2023/05/10 04:55:49;;;;;;;10.90;5.60;;;11.60;99.90;;;;;;5003757;28;20033;-39
2023/05/10 04:58:15;;;;;;;10.27;6.00;;;11.60;99.90;;;;;;4994141;28;20026;-39
2023/05/10 05:00:41;;;;;;;12.38;6.10;;;11.60;99.90;;;;;;5001561;28;20156;-41
2023/05/10 05:03:07;;;;;;;10.25;6.20;;;11.60;99.90;;;;;;5002921;28;20029;-43
2023/05/10 05:05:32;;;;;;;10.75;6.22;;;11.60;99.90;;;;;;5009945;28;20044;-44
2023/05/10 05:07:58;;;;;;;13.05;5.70;;;11.60;99.90;;;;;;5000598;28;20374;-53
2023/05/10 05:10:23;;;;;;;14.57;6.88;;;11.70;99.90;;;;;;5003064;28;20034;-45
2023/05/10 05:12:49;;;;;;;10.93;5.85;;;11.70;99.90;;;;;;5001607;28;20054;-51
2023/05/10 05:15:16;;;;;;;12.25;6.35;;;11.80;99.90;;;;;;5001897;28;20014;-43
2023/05/10 05:17:42;;;;;;;12.45;6.72;;;11.80;99.90;;;;;;5006378;28;20034;-46
2023/05/10 05:20:08;;;;;;;12.32;6.70;;;11.90;99.90;;;;;;4993906;28;20097;-42
2023/05/10 05:22:36;;;;;;;14.00;7.10;;;11.90;99.90;;;;;;5003874;28;20440;-42
2023/05/10 05:25:03;;;;;;;12.85;6.90;;;12.00;99.90;;;;;;5002366;28;20030;-49
2023/05/10 05:27:29;;;;;;;12.88;7.47;;;12.00;99.90;;;;;;4998013;28;20033;-42
2023/05/10 05:29:58;;;;;;;16.08;7.80;;;12.00;99.90;;;;;;4993129;28;20057;-46
2023/05/10 05:32:24;;;;;;;14.73;7.38;;;12.00;99.90;;;;;;4993718;28;20064;-54
2023/05/10 05:34:51;;;;;;;18.55;7.40;;;12.00;99.90;;;;;;4998892;28;20080;-43
2023/05/10 05:37:21;;;;;;;16.65;7.60;;;12.10;99.90;;;;;;5001427;28;20034;-45
2023/05/10 05:39:47;;;;;;;14.43;7.38;;;12.00;99.90;;;;;;5009784;28;20046;-41
2023/05/10 05:42:13;;;;;;;14.27;7.28;;;12.20;99.90;;;;;;4997037;28;20499;-41
2023/05/10 05:44:39;;;;;;;15.15;7.43;;;12.30;99.90;;;;;;5005039;28;20129;-41
2023/05/10 05:47:05;;;;;;;16.20;7.82;;;12.40;99.90;;;;;;5007285;28;20042;-47
2023/05/10 05:49:31;;;;;;;13.45;7.20;;;12.50;99.90;;;;;;4993725;28;20113;-54
2023/05/10 05:52:01;;;;;;;15.43;8.48;;;12.80;99.90;;;;;;5006981;28;20500;-46
2023/05/10 05:54:27;;;;;;;12.90;6.97;;;13.10;99.90;;;;;;4996003;28;20030;-45
2023/05/10 05:57:00;;;;;;;15.52;7.20;;;13.40;99.90;;;;;;5007078;28;20052;-45
2023/05/10 05:59:26;;;;;;;14.48;6.50;;;13.50;99.90;;;;;;4998236;28;20034;-48
2023/05/10 06:01:52;;;;;;;15.95;7.22;;;13.50;99.90;;;;;;4992149;28;20023;-50
2023/05/10 06:04:18;;;;;;;14.68;6.40;;;13.40;99.90;;;;;;4992892;28;20038;-43
2023/05/10 06:06:44;;;;;;;12.25;6.40;;;13.70;99.90;;;;;;5007840;28;20022;-50
2023/05/10 06:09:10;;;;;;;12.07;6.32;;;14.10;99.90;;;;;;4992640;28;20371;-43
2023/05/10 06:11:36;;;;;;;13.05;5.05;;;14.70;99.90;;;;;;4992300;28;20779;-51
2023/05/10 06:14:04;;;;;;;11.55;5.18;;;15.40;99.90;;;;;;4991503;28;20038;-41
2023/05/10 06:16:30;;;;;;;11.35;4.68;;;16.20;99.90;;;;;;4991773;28;20446;-42
2023/05/10 06:18:56;;;;;;;11.95;4.95;;;16.90;99.90;;;;;;4992320;28;20030;-50
2023/05/10 06:21:22;;;;;;;10.60;4.78;;;17.40;99.90;;;;;;4992461;28;20497;-43
2023/05/10 06:23:48;;;;;;;10.95;4.53;;;18.10;99.90;;;;;;4992075;28;20038;-43
2023/05/10 06:26:13;;;;;;;8.45;3.95;;;18.20;99.90;;;;;;4992368;28;20448;-42
2023/05/10 06:28:39;;;;;;;10.32;5.00;;;18.30;99.90;;;;;;4991708;28;20080;-51
2023/05/10 06:31:06;;;;;;;9.23;4.22;;;18.20;99.90;;;;;;4991844;28;20034;-53
2023/05/10 06:33:32;;;;;;;8.95;4.07;;;18.30;99.90;;;;;;4997218;28;20029;-43
2023/05/10 06:35:58;;;;;;;8.90;3.97;;;18.40;99.90;;;;;;5011790;28;20049;-51
2023/05/10 06:38:23;;;;;;;8.48;3.83;;;18.30;99.90;;;;;;5006267;28;20453;-45
2023/05/10 06:40:49;;;;;;;6.95;3.80;;;18.40;99.90;;;;;;4993862;28;20038;-50
2023/05/10 06:43:15;;;;;;;7.90;3.63;;;18.30;99.90;;;;;;4991643;28;20030;-40
2023/05/10 06:45:40;;;;;;;7.55;3.53;;;18.30;99.90;;;;;;4991671;28;20389;-39
2023/05/10 06:48:07;;;;;;;9.05;3.42;;;18.40;99.90;;;;;;4991725;28;20046;-39
2023/05/10 06:50:33;;;;;;;6.35;3.47;;;18.90;99.90;;;;;;4991712;28;20038;-41
2023/05/10 06:52:59;;;;;;;9.00;3.80;;;19.20;99.90;;;;;;4991285;28;20034;-41
2023/05/10 06:55:25;;;;;;;10.95;3.15;;;19.80;99.90;;;;;;4991385;28;20148;-43
2023/05/10 06:57:51;;;;;;;8.32;3.22;;;20.40;99.90;;;;;;4985954;28;20022;-39
2023/05/10 07:00:17;;;;;;;7.28;2.88;;;20.90;99.90;;;;;;4990708;28;20089;-43
2023/05/10 07:02:43;;;;;;;7.93;3.00;;;21.50;99.90;;;;;;4991374;28;20036;-47
2023/05/10 07:05:09;;;;;;;6.72;2.80;;;21.70;99.90;;;;;;4991262;28;20030;-43
2023/05/10 07:07:35;;;;;;;7.25;2.55;;;22.30;99.90;;;;;;4991261;28;20404;-46
2023/05/10 07:10:01;;;;;;;9.05;3.17;;;23.10;99.90;;;;;;4991244;28;20029;-55
2023/05/10 07:12:26;;;;;;;7.88;2.50;;;23.60;99.90;;;;;;4981236;28;20117;-53
2023/05/10 07:14:52;;;;;;;6.65;2.70;;;24.10;99.90;;;;;;4986492;28;20137;-57
2023/05/10 07:17:17;;;;;;;5.22;2.50;;;24.50;99.90;;;;;;4994019;28;20496;-46
2023/05/10 07:19:44;;;;;;;10.20;2.97;;;25.00;99.90;;;;;;4988230;28;20030;-42
2023/05/10 07:22:09;;;;;;;6.72;2.58;;;25.20;99.90;;;;;;4990975;28;20030;-40
2023/05/10 07:24:35;;;;;;;9.38;2.67;;;25.10;99.60;;;;;;4991276;28;20766;-54
2023/05/10 07:27:00;;;;;;;6.82;2.47;;;25.20;99.90;;;;;;4991543;28;20031;-49
2023/05/10 07:29:26;;;;;;;6.93;2.30;;;25.90;95.00;;;;;;4990775;28;20026;-54
2023/05/10 07:31:52;;;;;;;5.90;2.13;;;26.50;87.90;;;;;;4991788;28;20418;-52
2023/05/10 07:34:17;;;;;;;6.82;2.53;;;26.30;86.10;;;;;;4992102;28;20034;-43
2023/05/10 07:36:43;;;;;;;12.82;2.92;;;26.60;86.60;;;;;;4997794;28;20380;-45
2023/05/10 07:39:09;;;;;;;8.07;2.67;;;26.90;84.00;;;;;;4996601;28;20397;-41
2023/05/10 07:41:34;;;;;;;6.55;2.60;;;27.50;80.00;;;;;;4996491;28;20034;-45
2023/05/10 07:44:00;;;;;;;6.85;2.30;;;27.80;75.30;;;;;;5001513;28;20022;-40
2023/05/10 07:46:26;;;;;;;6.35;2.13;;;28.00;77.40;;;;;;4990647;28;20030;-47
2023/05/10 07:48:52;;;;;;;5.78;2.03;;;28.10;74.20;;;;;;5003704;28;20026;-43
2023/05/10 07:51:17;;;;;;;6.90;2.65;;;28.20;73.90;;;;;;4990967;28;20125;-45
2023/05/10 07:53:43;;;;;;;8.60;2.22;;;28.30;71.60;;;;;;4995831;28;20029;-53
2023/05/10 07:56:27;;;;;;;7.80;2.40;;;28.20;71.10;;;;;;4994507;28;20440;-51
2023/05/10 07:58:54;;;;;;;6.88;2.10;;;28.10;69.30;;;;;;4992314;28;20113;-46
2023/05/10 08:01:20;;;;;;;7.88;2.35;;;28.80;67.70;;;;;;4998136;28;20033;-47
2023/05/10 08:03:45;;;;;;;4.82;2.17;;;29.50;67.80;;;;;;4996637;28;20027;-49
2023/05/10 08:06:11;;;;;;;9.00;2.67;;;29.10;66.20;;;;;;4998309;28;20023;-40
2023/05/10 08:08:37;;;;;;;5.20;2.03;;;28.70;66.00;;;;;;4990311;28;20030;-46
2023/05/10 08:11:04;;;;;;;7.68;2.17;;;29.20;65.20;;;;;;4992286;28;20362;-48
2023/05/10 08:13:31;;;;;;;9.13;2.45;;;29.00;63.10;;;;;;4992110;28;20062;-47
2023/05/10 08:15:56;;;;;;;8.75;2.42;;;29.40;65.20;;;;;;4997670;28;20030;-47
2023/05/10 08:18:22;;;;;;;7.05;2.17;;;29.60;61.80;;;;;;4994618;28;20077;-51
2023/05/10 08:20:48;;;;;;;5.55;2.15;;;29.70;62.40;;;;;;5014689;28;20029;-41
2023/05/10 08:23:13;;;;;;;10.25;2.47;;;30.10;64.60;;;;;;5007497;28;20112;-40
2023/05/10 08:25:39;;;;;;;5.43;2.00;;;30.20;60.60;;;;;;4994237;28;20072;-47
2023/05/10 08:28:05;;;;;;;5.15;2.00;;;30.60;62.20;;;;;;4998372;28;20030;-45
2023/05/10 08:30:30;;;;;;;6.63;2.22;;;30.30;61.90;;;;;;5002055;28;20385;-48
2023/05/10 08:32:56;;;;;;;6.75;1.83;;;30.60;60.00;;;;;;4999654;28;20049;-43
2023/05/10 08:35:22;;;;;;;4.80;1.98;;;30.80;61.90;;;;;;4994327;28;20063;-49
2023/05/10 08:37:47;;;;;;;7.50;2.08;;;30.90;58.80;;;;;;4983454;28;20347;-49
2023/05/10 08:40:15;;;;;;;7.20;2.03;;;30.90;58.10;;;;;;4996805;28;20472;-42
2023/05/10 08:42:48;;;;;;;5.97;1.73;;;30.70;59.20;;;;;;4996431;28;20037;-48
2023/05/10 08:45:16;;;;;;;5.68;2.10;;;30.60;64.30;;;;;;5001715;28;20037;-40
2023/05/10 08:47:42;;;;;;;5.90;1.73;;;30.20;56.90;;;;;;4997583;28;20030;-43
2023/05/10 08:50:08;;;;;;;6.65;2.30;;;29.90;58.80;;;;;;5007007;28;20037;-49
2023/05/10 08:52:39;;;;;;;5.93;2.03;;;29.70;59.40;;;;;;5010797;28;20069;-55
2023/05/10 08:55:04;;;;;;;5.47;1.90;;;29.60;59.20;;;;;;5008490;28;20018;-53
2023/05/10 08:57:30;;;;;;;6.95;1.88;;;30.00;60.40;;;;;;5001219;28;20104;-41
2023/05/10 08:59:56;;;;;;;6.60;2.38;;;30.30;62.10;;;;;;4994949;28;20029;-44
2023/05/10 09:02:23;;;;;;;5.90;1.90;;;30.00;54.20;;;;;;4991070;28;20434;-47
2023/05/10 09:04:49;;;;;;;6.80;2.00;;;29.40;60.10;;;;;;4988995;28;20030;-43
2023/05/10 09:07:16;;;;;;;5.45;1.75;;;29.80;60.40;;;;;;4989062;28;20030;-44
2023/05/10 09:09:42;;;;;;;6.88;2.40;;;29.80;58.70;;;;;;4988433;28;20027;-41
2023/05/10 09:12:11;;;;;;;6.13;1.95;;;29.70;57.20;;;;;;4992712;28;20389;-44
2023/05/10 09:14:38;;;;;;;6.03;1.90;;;29.80;62.10;;;;;;4990411;28;20101;-40
2023/05/10 09:17:04;;;;;;;5.13;1.80;;;29.80;63.30;;;;;;4992467;28;20030;-42
2023/05/10 09:19:30;;;;;;;5.97;2.03;;;29.80;56.70;;;;;;4993467;28;20019;-47
2023/05/10 09:21:56;;;;;;;6.30;2.35;;;29.70;64.80;;;;;;4993481;28;20113;-39
2023/05/10 09:24:26;;;;;;;5.63;2.10;;;30.00;62.10;;;;;;4996550;28;20208;-42
2023/05/10 09:26:51;;;;;;;5.53;2.05;;;29.70;61.70;;;;;;5001124;28;20113;-44
2023/05/10 09:29:17;;;;;;;6.95;2.22;;;28.90;60.60;;;;;;4992710;28;20101;-44
2023/05/10 09:31:50;;;;;;;6.63;2.10;;;29.00;63.00;;;;;;4992576;28;20064;-43
2023/05/10 09:34:21;;;;;;;6.50;2.05;;;28.00;59.00;;;;;;5005122;28;20033;-43
2023/05/10 09:36:54;;;;;;;5.93;2.17;;;27.70;64.10;;;;;;4993290;28;20030;-41
2023/05/10 09:39:20;;;;;;;8.43;2.60;;;27.50;60.20;;;;;;4990156;28;20049;-48
2023/05/10 09:41:47;;;;;;;5.53;1.90;;;27.20;64.80;;;;;;4991119;28;20026;-48
2023/05/10 09:44:17;;;;;;;7.28;2.25;;;27.40;67.70;;;;;;4991122;28;20014;-46
2023/05/10 09:46:43;;;;;;;6.18;2.00;;;28.20;67.10;;;;;;4992171;28;20049;-49
2023/05/10 09:49:14;;;;;;;5.22;2.30;;;28.90;63.00;;;;;;4994121;28;20030;-56
2023/05/10 09:51:39;;;;;;;12.85;3.35;;;28.60;61.80;;;;;;4996953;28;20048;-51
2023/05/10 09:54:14;;;;;;;39.45;5.30;;;28.20;60.00;;;;;;4999025;28;20026;-40
2023/05/10 09:56:40;;;;;;;18.52;3.08;;;28.30;64.00;;;;;;4994005;28;20041;-39
2023/05/10 09:59:09;;;;;;;5.97;1.98;;;29.00;62.10;;;;;;5002803;28;20015;-39
2023/05/10 10:01:34;;;;;;;;;;;29.90;61.20;;;;;;5000949;28;20031;-49
2023/05/10 10:04:04;;;;;;;4.03;1.55;;;30.50;56.90;;;;;;4992933;28;19928;-41
2023/05/10 10:06:35;;;;;;;5.70;1.80;;;30.60;58.60;;;;;;4983754;28;20037;-41
2023/05/10 10:09:01;;;;;;;5.28;1.85;;;30.20;60.70;;;;;;4992868;28;20025;-39
2023/05/10 10:11:27;;;;;;;4.38;1.90;;;30.50;57.50;;;;;;4992630;28;20038;-39
2023/05/10 10:13:53;;;;;;;5.90;1.80;;;30.10;57.20;;;;;;4992727;28;20030;-43
2023/05/10 10:16:20;;;;;;;3.47;1.52;;;28.90;57.40;;;;;;4992697;28;20629;-40
2023/05/10 10:18:46;;;;;;;4.43;1.90;;;28.30;62.60;;;;;;4992776;28;20019;-44
2023/05/10 10:21:14;;;;;;;3.10;1.60;;;28.10;62.70;;;;;;4990966;28;20033;-40
2023/05/10 10:23:40;;;;;;;5.07;1.47;;;28.20;58.90;;;;;;4992421;28;20034;-45
2023/05/10 10:26:07;;;;;;;5.70;1.67;;;27.60;58.40;;;;;;4992458;28;20022;-41
2023/05/10 10:29:07;;;;;;;5.68;1.90;;;27.10;59.80;;;;;;4983829;28;20033;-41
2023/05/10 10:31:40;;;;;;;9.15;1.90;;;25.80;61.40;;;;;;4981317;28;20109;-43
2023/05/10 10:34:08;;;;;;;7.15;1.80;;;25.10;62.80;;;;;;5000753;28;20034;-54
2023/05/10 10:36:45;;;;;;;5.30;2.38;;;24.40;70.60;;;;;;4995906;28;20033;-46
2023/05/10 10:39:12;;;;;;;3.97;1.80;;;23.70;67.80;;;;;;4992166;28;20050;-50
2023/05/10 10:41:42;;;;;;;4.30;1.63;;;23.70;74.10;;;;;;5000418;28;20034;-55
2023/05/10 10:44:36;;;;;;;5.53;1.98;;;24.30;68.50;;;;;;4995528;28;20030;-56
2023/05/10 10:47:11;;;;;;;7.40;1.98;;;24.40;68.20;;;;;;5003438;28;20062;-55
2023/05/10 10:49:44;;;;;;;5.88;2.20;;;23.80;68.90;;;;;;4992297;28;20038;-47
2023/05/10 10:52:21;;;;;;;10.70;2.20;;;23.30;66.40;;;;;;4991576;28;20113;-49
2023/05/10 10:54:51;;;;;;;4.80;2.00;;;23.60;75.00;;;;;;4991650;28;20053;-43
2023/05/10 10:57:21;;;;;;;5.13;2.10;;;24.90;74.40;;;;;;4991924;28;20029;-50
2023/05/10 10:59:47;;;;;;;4.30;1.75;;;26.30;78.40;;;;;;4991712;28;20023;-46
2023/05/10 11:02:42;;;;;;;4.00;2.00;;;27.00;63.60;;;;;;4991621;28;20027;-59
2023/05/10 11:05:23;;;;;;;4.85;1.88;;;26.10;58.00;;;;;;4985877;28;20112;-47
2023/05/10 11:07:56;;;;;;;5.80;1.80;;;25.50;63.40;;;;;;5003363;28;20102;-39
2023/05/10 11:10:23;;;;;;;4.43;1.63;;;24.90;63.10;;;;;;5008940;28;20049;-39
2023/05/10 11:13:05;;;;;;;4.88;2.20;;;24.60;66.50;;;;;;5007773;28;20034;-43
2023/05/10 11:15:47;;;;;;;4.20;1.70;;;25.10;71.80;;;;;;5010739;28;20386;-37
2023/05/10 11:18:31;;;;;;;4.45;1.70;;;25.80;65.10;;;;;;4979472;28;20392;-40
2023/05/10 11:21:05;;;;;;;5.38;1.90;;;26.20;61.20;;;;;;4991399;28;20072;-42
2023/05/10 11:23:57;;;;;;;3.28;1.58;;;26.20;61.40;;;;;;4991321;28;20524;-40
2023/05/10 11:26:25;;;;;;;5.30;1.83;;;25.30;62.70;;;;;;4991908;28;20026;-40
2023/05/10 11:28:54;;;;;;;7.57;2.10;;;24.80;65.10;;;;;;4993152;28;20030;-42
2023/05/10 11:31:21;;;;;;;4.32;1.70;;;25.50;65.30;;;;;;4992253;28;20035;-42
2023/05/10 11:33:57;;;;;;;4.90;1.50;;;26.30;65.60;;;;;;5002394;28;20377;-40
2023/05/10 11:36:28;;;;;;;7.63;1.90;;;27.00;60.80;;;;;;5010775;28;20501;-41
2023/05/10 11:38:55;;;;;;;4.30;1.45;;;27.10;63.50;;;;;;5010592;28;20046;-42
2023/05/10 11:41:24;;;;;;;4.88;1.63;;;27.00;59.90;;;;;;5010744;28;20405;-40
2023/05/10 11:43:52;;;;;;;6.60;1.70;;;27.20;59.20;;;;;;5003932;28;20105;-45
2023/05/10 11:46:20;;;;;;;5.87;1.40;;;27.20;58.70;;;;;;4991344;28;20031;-40
2023/05/10 11:48:50;;;;;;;3.88;1.42;;;27.40;59.70;;;;;;4990790;28;20030;-50
2023/05/10 11:51:20;;;;;;;5.32;1.10;;;27.70;64.20;;;;;;4990962;28;20069;-54
2023/05/10 11:53:46;;;;;;;2.85;1.10;;;28.00;57.10;;;;;;4990631;28;20069;-53
2023/05/10 11:56:12;;;;;;;6.53;1.35;;;28.10;56.20;;;;;;4991268;28;20046;-40
2023/05/10 11:58:39;;;;;;;10.10;1.75;;;27.60;55.00;;;;;;4990972;28;20482;-43
2023/05/10 12:01:08;;;;;;;4.15;1.50;;;26.70;54.20;;;;;;4990738;28;20117;-47
2023/05/10 12:03:35;;;;;;;6.15;1.48;;;25.30;58.40;;;;;;5001840;28;20436;-44
2023/05/10 12:06:01;;;;;;;4.90;1.42;;;24.20;61.70;;;;;;4991013;28;20049;-42
2023/05/10 12:08:29;;;;;;;2.63;1.15;;;23.50;66.60;;;;;;5006154;28;20034;-48
2023/05/10 12:11:08;;;;;;;6.15;1.60;;;22.80;66.00;;;;;;4993907;28;20038;-45
2023/05/10 12:13:40;;;;;;;6.53;1.65;;;22.60;66.70;;;;;;4996384;28;20036;-54
2023/05/10 12:16:20;;;;;;;6.72;1.63;;;22.50;66.50;;;;;;4997071;28;20026;-48
2023/05/10 12:18:53;;;;;;;4.55;1.67;;;22.50;68.20;;;;;;4999845;28;20026;-42
2023/05/10 12:21:20;;;;;;;6.05;1.60;;;23.10;69.40;;;;;;4995644;28;20033;-46
2023/05/10 12:23:49;;;;;;;4.10;1.55;;;24.10;67.30;;;;;;4997923;28;20050;-48
2023/05/10 12:26:15;;;;;;;6.07;1.67;;;25.00;69.80;;;;;;4990760;28;20026;-40
2023/05/10 12:28:40;;;;;;;5.10;1.85;;;25.50;63.60;;;;;;4990753;28;20026;-43
2023/05/10 12:31:07;;;;;;;5.43;2.00;;;25.70;66.00;;;;;;4990886;28;20135;-53
2023/05/10 12:33:42;;;;;;;8.13;2.13;;;25.80;65.10;;;;;;4996745;28;20033;-42
2023/05/10 12:36:09;;;;;;;9.13;2.63;;;25.00;64.90;;;;;;5006734;28;20034;-53
2023/05/10 12:38:37;;;;;;;11.95;2.50;;;24.10;65.00;;;;;;5002436;28;20397;-54
2023/05/10 12:41:08;;;;;;;8.38;2.10;;;23.30;69.10;;;;;;4990806;28;20509;-50
2023/05/10 12:43:35;;;;;;;10.40;2.67;;;22.90;73.50;;;;;;5005170;28;20027;-54
2023/05/10 12:46:09;;;;;;;7.43;2.20;;;22.80;75.00;;;;;;4990561;28;20034;-49
2023/05/10 12:48:37;;;;;;;7.93;2.10;;;22.50;76.60;;;;;;5005556;28;20018;-46
2023/05/10 12:51:04;;;;;;;9.18;2.33;;;22.10;74.60;;;;;;4991277;28;20119;-48